createdAt,value
2022-11-24T00:00:41.140Z,5.35
2022-11-24T00:04:44.261Z,5.15
2022-11-24T00:08:47.761Z,5.40
2022-11-24T00:12:50.709Z,5.50
2022-11-24T00:16:55.116Z,5.05
2022-11-24T00:20:58.588Z,4.75
2022-11-24T00:25:01.586Z,5.22
2022-11-24T00:29:07.560Z,4.60
2022-11-24T00:33:11.883Z,5.07
2022-11-24T00:37:14.864Z,4.65
2022-11-24T00:41:18.039Z,4.78
2022-11-24T00:45:21.027Z,4.85
2022-11-24T00:49:25.493Z,4.72
2022-11-24T00:53:28.981Z,4.57
2022-11-24T00:57:32.041Z,4.70
2022-11-24T01:01:35.073Z,4.82
2022-11-24T01:05:40.372Z,4.30
2022-11-24T01:09:45.605Z,5.35
2022-11-24T01:13:50.676Z,4.38
2022-11-24T01:17:53.914Z,4.68
2022-11-24T01:21:58.243Z,4.75
2022-11-24T01:26:01.441Z,4.95
2022-11-24T01:30:05.602Z,4.68
2022-11-24T01:34:08.652Z,4.05
2022-11-24T01:38:13.207Z,4.72
2022-11-24T01:42:16.147Z,4.95
2022-11-24T01:46:23.898Z,5.43
2022-11-24T01:50:27.205Z,4.68
2022-11-24T01:54:34.473Z,4.72
2022-11-24T01:58:38.980Z,4.63
2022-11-24T02:02:43.499Z,4.95
2022-11-24T02:06:47.945Z,4.90
2022-11-24T02:10:52.325Z,4.90
2022-11-24T02:14:56.921Z,4.93
2022-11-24T02:18:59.883Z,5.18
2022-11-24T02:23:08.669Z,5.38
2022-11-24T02:27:13.110Z,5.05
2022-11-24T02:31:16.153Z,5.20
2022-11-24T02:35:19.491Z,5.72
2022-11-24T02:39:22.501Z,5.32
2022-11-24T02:43:29.316Z,5.55
2022-11-24T02:47:32.264Z,5.18
2022-11-24T02:51:35.682Z,4.50
2022-11-24T02:55:38.830Z,4.30
2022-11-24T02:59:43.237Z,4.30
2022-11-24T03:03:46.504Z,4.40
2022-11-24T03:07:49.743Z,4.25
2022-11-24T03:11:52.821Z,4.68
2022-11-24T03:15:57.179Z,4.60
2022-11-24T03:20:04.945Z,5.25
2022-11-24T03:24:08.527Z,5.13
2022-11-24T03:28:11.585Z,5.03
2022-11-24T03:32:15.908Z,5.68
2022-11-24T03:36:19.103Z,5.13
2022-11-24T03:40:22.075Z,5.40
2022-11-24T03:44:25.053Z,5.82
2022-11-24T03:48:29.431Z,5.55
2022-11-24T03:52:32.411Z,5.70
2022-11-24T03:56:35.406Z,6.00
2022-11-24T04:00:38.430Z,5.43
2022-11-24T04:04:47.076Z,5.20
2022-11-24T04:08:53.702Z,5.13
2022-11-24T04:12:56.666Z,5.15
2022-11-24T04:16:59.698Z,5.03
2022-11-24T04:21:04.061Z,5.18
2022-11-24T04:25:08.644Z,4.75
2022-11-24T04:29:12.004Z,5.68
2022-11-24T04:33:15.450Z,4.97
2022-11-24T04:37:19.935Z,4.57
2022-11-24T04:41:22.878Z,5.05
2022-11-24T04:45:25.942Z,5.10
2022-11-24T04:49:28.923Z,5.05
2022-11-24T04:53:33.545Z,5.05
2022-11-24T04:57:36.578Z,4.40
2022-11-24T05:01:39.606Z,4.90
2022-11-24T05:05:42.591Z,5.70
2022-11-24T05:10:04.718Z,5.10
2022-11-24T05:14:07.668Z,5.05
2022-11-24T05:18:15.311Z,4.80
2022-11-24T05:22:18.270Z,5.05
2022-11-24T05:26:22.722Z,5.10
2022-11-24T05:30:25.858Z,4.57
2022-11-24T05:34:32.086Z,4.70
2022-11-24T05:38:36.642Z,5.30
2022-11-24T05:42:47.611Z,4.65
2022-11-24T05:46:51.217Z,5.28
2022-11-24T05:50:55.865Z,5.15
2022-11-24T05:54:58.859Z,5.93
2022-11-24T05:59:08.167Z,4.57
2022-11-24T06:03:13.184Z,5.03
2022-11-24T06:07:16.230Z,4.47
2022-11-24T06:11:19.202Z,4.22
2022-11-24T06:15:23.709Z,4.30
2022-11-24T06:19:26.746Z,4.65
2022-11-24T06:23:29.716Z,4.60
2022-11-24T06:27:32.683Z,4.45
2022-11-24T06:31:37.346Z,4.50
2022-11-24T06:35:40.340Z,4.25
2022-11-24T06:39:43.315Z,4.43
2022-11-24T06:43:47.643Z,4.07
2022-11-24T06:47:54.776Z,4.13
2022-11-24T06:51:57.789Z,3.88
2022-11-24T06:56:01.756Z,3.40
2022-11-24T07:00:05.359Z,3.80
2022-11-24T07:04:10.328Z,3.67
2022-11-24T07:08:17.779Z,3.95
2022-11-24T07:12:21.329Z,3.30
2022-11-24T07:16:26.240Z,3.22
2022-11-24T07:20:30.675Z,3.60
2022-11-24T07:24:33.911Z,3.78
2022-11-24T07:28:38.671Z,3.50
2022-11-24T07:32:41.691Z,3.35
2022-11-24T07:36:46.144Z,3.35
2022-11-24T07:40:49.065Z,3.25
2022-11-24T07:44:52.158Z,3.42
2022-11-24T07:48:55.108Z,2.78
2022-11-24T07:53:04.259Z,2.55
2022-11-24T07:57:07.356Z,2.83
2022-11-24T08:01:15.306Z,2.95
2022-11-24T08:05:18.330Z,3.00
2022-11-24T08:09:22.688Z,3.00
2022-11-24T08:13:25.856Z,2.53
2022-11-24T08:17:29.795Z,2.67
2022-11-24T08:21:32.734Z,3.10
2022-11-24T08:25:37.114Z,2.42
2022-11-24T08:29:40.157Z,2.38
2022-11-24T08:33:43.847Z,1.95
2022-11-24T08:37:46.846Z,2.10
2022-11-24T08:41:51.227Z,1.77
2022-11-24T08:45:54.256Z,1.60
2022-11-24T08:49:57.282Z,1.80
2022-11-24T08:54:02.777Z,1.70
2022-11-24T08:58:07.195Z,1.35
2022-11-24T09:02:12.965Z,1.80
2022-11-24T09:06:16.790Z,1.75
2022-11-24T09:10:19.956Z,1.60
2022-11-24T09:14:24.313Z,1.63
2022-11-24T09:18:30.259Z,1.88
2022-11-24T09:22:33.831Z,2.00
2022-11-24T09:26:41.775Z,2.00
2022-11-24T09:30:49.359Z,2.15
2022-11-24T09:34:52.845Z,2.13
2022-11-24T09:38:56.300Z,2.20
2022-11-24T09:43:05.048Z,2.22
2022-11-24T09:47:14.961Z,2.40
2022-11-24T09:51:19.912Z,2.67
2022-11-24T09:55:31.576Z,2.72
2022-11-24T09:59:35.010Z,2.55
2022-11-24T10:03:43.521Z,2.17
2022-11-24T10:07:53.057Z,2.63
2022-11-24T10:12:03.611Z,2.40
2022-11-24T10:16:15.144Z,2.33
2022-11-24T10:20:28.867Z,2.70
2022-11-24T10:24:50.235Z,2.42
2022-11-24T10:28:55.915Z,2.55
2022-11-24T10:33:03.254Z,2.25
2022-11-24T10:37:17.951Z,2.15
2022-11-24T10:41:26.674Z,2.42
2022-11-24T10:45:30.484Z,2.20
2022-11-24T10:49:34.364Z,2.47
2022-11-24T10:53:43.711Z,2.20
2022-11-24T10:57:46.687Z,2.03
2022-11-24T11:01:49.868Z,2.58
2022-11-24T11:05:54.869Z,2.53
2022-11-24T11:10:22.336Z,2.15
2022-11-24T11:14:33.918Z,2.38
2022-11-24T11:18:37.478Z,2.42
2022-11-24T11:22:44.340Z,2.70
2022-11-24T11:26:48.904Z,2.05
2022-11-24T11:35:26.315Z,1.88
2022-11-24T11:39:33.014Z,1.90
2022-11-24T11:43:41.232Z,1.80
2022-11-24T11:47:50.957Z,1.40
2022-11-24T11:52:15.951Z,1.40
2022-11-24T11:56:26.220Z,1.27
2022-11-24T12:00:36.240Z,1.30
2022-11-24T12:04:48.221Z,1.58
2022-11-24T12:09:19.679Z,1.30
2022-11-24T12:13:42.753Z,1.40
2022-11-24T12:17:53.224Z,1.60
2022-11-24T12:22:06.971Z,1.90
2022-11-24T12:26:20.621Z,1.70
2022-11-24T12:30:24.696Z,1.45
2022-11-24T12:34:38.939Z,2.17
2022-11-24T12:38:51.562Z,1.40
2022-11-24T12:43:06.176Z,1.70
2022-11-24T12:47:16.318Z,1.60
2022-11-24T12:51:25.472Z,2.00
2022-11-24T12:55:32.233Z,2.05
2022-11-24T12:59:45.405Z,1.85
2022-11-24T13:04:03.251Z,1.80
2022-11-24T13:08:07.855Z,2.05
2022-11-24T13:12:14.382Z,1.80
2022-11-24T13:20:41.971Z,2.05
2022-11-24T13:24:46.493Z,1.80
2022-11-24T13:29:09.297Z,1.60
2022-11-24T13:33:48.011Z,1.95
2022-11-24T13:37:52.950Z,2.10
2022-11-24T13:42:06.340Z,1.70
2022-11-24T13:46:11.125Z,1.77
2022-11-24T13:50:26.065Z,1.90
2022-11-24T13:54:29.958Z,1.80
2022-11-24T13:58:38.457Z,2.17
2022-11-24T14:02:45.480Z,1.80
2022-11-24T14:06:59.014Z,1.95
2022-11-24T14:11:12.344Z,1.90
2022-11-24T14:15:24.704Z,1.98
2022-11-24T14:19:30.890Z,2.00
2022-11-24T14:23:35.209Z,2.10
2022-11-24T14:27:40.142Z,2.03
2022-11-24T14:31:52.805Z,2.53
2022-11-24T14:35:56.073Z,2.38
2022-11-24T14:39:59.012Z,2.05
2022-11-24T14:44:17.243Z,2.50
2022-11-24T14:48:28.846Z,4.18
2022-11-24T14:52:31.842Z,2.58
2022-11-24T14:56:37.523Z,2.25
2022-11-24T15:00:40.529Z,2.50
2022-11-24T15:05:03.738Z,2.30
2022-11-24T15:09:07.379Z,1.80
2022-11-24T15:13:18.535Z,1.70
2022-11-24T15:17:24.665Z,1.60
2022-11-24T15:21:38.288Z,1.55
2022-11-24T15:25:41.513Z,1.70
2022-11-24T15:29:44.459Z,2.00
2022-11-24T15:33:47.392Z,1.85
2022-11-24T15:37:52.137Z,1.70
2022-11-24T15:41:55.121Z,1.80
2022-11-24T15:45:58.834Z,1.88
2022-11-24T15:50:01.852Z,1.92
2022-11-24T15:54:07.238Z,2.05
2022-11-24T15:58:13.700Z,2.40
2022-11-24T16:02:16.683Z,2.05
2022-11-24T16:06:25.118Z,2.20
2022-11-24T16:10:33.087Z,2.15
2022-11-24T16:14:36.488Z,2.28
2022-11-24T16:18:40.104Z,2.28
2022-11-24T16:22:43.211Z,2.40
2022-11-24T16:26:47.571Z,2.42
2022-11-24T16:30:50.932Z,2.20
2022-11-24T16:34:53.921Z,2.25
2022-11-24T16:38:57.092Z,2.20
2022-11-24T16:43:01.793Z,2.00
2022-11-24T16:47:04.908Z,1.90
2022-11-24T16:51:10.277Z,2.00
2022-11-24T16:55:14.284Z,1.85
2022-11-24T16:59:18.699Z,1.73
2022-11-24T17:03:21.792Z,1.70
2022-11-24T17:07:24.811Z,1.80
2022-11-24T17:11:29.466Z,1.90
2022-11-24T17:15:36.713Z,1.95
2022-11-24T17:19:42.402Z,2.03
2022-11-24T17:23:45.430Z,2.10
2022-11-24T17:27:49.026Z,2.17
2022-11-24T17:31:53.672Z,2.50
2022-11-24T17:35:56.774Z,2.47
2022-11-24T17:40:20.705Z,1.98
2022-11-24T17:44:23.043Z,1.92
2022-11-24T17:48:28.011Z,1.67
2022-11-24T17:52:31.173Z,1.70
2022-11-24T17:56:34.382Z,1.90
2022-11-24T18:00:37.920Z,1.70
2022-11-24T18:04:42.396Z,1.80
2022-11-24T18:08:47.736Z,1.63
2022-11-24T18:12:50.727Z,1.95
2022-11-24T18:16:53.871Z,1.83
2022-11-24T18:20:59.744Z,1.92
2022-11-24T18:25:02.713Z,1.90
2022-11-24T18:29:05.861Z,1.95
2022-11-24T18:33:08.846Z,2.00
2022-11-24T18:37:14.861Z,1.88
2022-11-24T18:41:18.330Z,1.70
2022-11-24T18:45:21.302Z,2.03
2022-11-24T18:49:24.318Z,2.00
2022-11-24T18:53:29.558Z,2.10
2022-11-24T18:57:32.685Z,2.00
2022-11-24T19:01:35.795Z,1.85
2022-11-24T19:05:41.108Z,2.17
2022-11-24T19:09:46.370Z,2.05
2022-11-24T19:13:50.305Z,1.92
2022-11-24T19:17:53.209Z,1.80
2022-11-24T19:21:56.601Z,1.73
2022-11-24T19:26:02.358Z,1.88
2022-11-24T19:30:06.385Z,2.42
2022-11-24T19:34:09.924Z,2.30
2022-11-24T19:38:15.168Z,2.30
2022-11-24T19:42:19.744Z,2.10
2022-11-24T19:46:26.163Z,2.40
2022-11-24T19:50:29.092Z,2.47
2022-11-24T19:54:34.611Z,2.45
2022-11-24T19:58:41.513Z,2.63
2022-11-24T20:02:44.706Z,2.85
2022-11-24T20:06:48.571Z,2.53
2022-11-24T20:10:51.595Z,2.42
2022-11-24T20:14:56.845Z,2.28
2022-11-24T20:19:01.520Z,2.55
2022-11-24T20:23:04.510Z,2.00
2022-11-24T20:27:07.495Z,2.47
2022-11-24T20:31:14.148Z,2.33
2022-11-24T20:35:18.458Z,2.42
2022-11-24T20:39:25.271Z,2.13
2022-11-24T20:43:31.627Z,1.98
2022-11-24T20:47:36.714Z,1.85
2022-11-24T20:51:43.834Z,2.00
2022-11-24T20:55:47.000Z,1.80
2022-11-24T20:59:50.021Z,1.98
2022-11-24T21:03:56.001Z,1.98
2022-11-24T21:07:58.941Z,1.80
2022-11-24T21:12:01.879Z,2.00
2022-11-24T21:16:13.601Z,2.05
2022-11-24T21:20:18.126Z,1.95
2022-11-24T21:24:22.551Z,2.05
2022-11-24T21:28:25.496Z,2.00
2022-11-24T21:32:29.425Z,1.88
2022-11-24T21:36:35.270Z,1.80
2022-11-24T21:40:38.173Z,1.70
2022-11-24T21:44:41.129Z,1.85
2022-11-24T21:48:44.080Z,1.80
2022-11-24T21:52:48.417Z,1.67
2022-11-24T21:56:51.356Z,1.65
2022-11-24T22:00:54.711Z,1.80
2022-11-24T22:04:57.890Z,1.52
2022-11-24T22:09:02.205Z,1.50
2022-11-24T22:13:05.184Z,1.60
2022-11-24T22:17:08.201Z,1.30
2022-11-24T22:21:13.361Z,1.20
2022-11-24T22:25:17.898Z,1.33
2022-11-24T22:29:21.043Z,1.20
2022-11-24T22:33:24.036Z,1.45
2022-11-24T22:37:27.021Z,1.10
2022-11-24T22:41:32.048Z,1.30
2022-11-24T22:45:36.632Z,1.20
2022-11-24T22:49:39.596Z,1.10
2022-11-24T22:53:42.611Z,1.20
2022-11-24T22:57:48.417Z,1.23
2022-11-24T23:01:51.674Z,1.00
2022-11-24T23:05:54.811Z,1.00
2022-11-24T23:09:58.018Z,1.10
2022-11-24T23:14:02.573Z,1.10
2022-11-24T23:18:05.810Z,1.20
2022-11-24T23:22:08.739Z,1.10
2022-11-24T23:26:13.652Z,1.02
2022-11-24T23:30:18.314Z,1.20
2022-11-24T23:34:21.251Z,1.23
2022-11-24T23:38:28.580Z,1.10
2022-11-24T23:42:31.575Z,1.10
2022-11-24T23:46:36.125Z,0.98
2022-11-24T23:50:39.255Z,1.30
2022-11-24T23:54:42.302Z,1.23
2022-11-24T23:58:45.979Z,1.30
